Time;durP1;ratioP1;P1;durP2;ratioP2;P2;SDS_P1;SDS_P2;PMS_P1;PMS_P2;Temp;Humidity;BMP_temperature;BMP_pressure;BME280_temperature;BME280_humidity;BME280_pressure;Samples;Min_cycle;Max_cycle;Signal;HPM_P1;HPM_P2
2024/01/25 00:00:04;0.00;0.00;0.62;0.00;0.00;0.62;5.83;2.97;;;20.90;25.00;;;;;;2228880;62;20548;-66
2024/01/25 00:02:49;0.00;0.00;0.62;0.00;0.00;0.62;5.10;2.70;;;20.90;24.50;;;;;;2229090;62;20468;-66
2024/01/25 00:05:34;0.00;0.00;0.62;0.00;0.00;0.62;5.33;2.70;;;20.90;25.00;;;;;;2229416;62;20951;-66
2024/01/25 00:08:19;0.00;0.00;0.62;0.00;0.00;0.62;4.20;2.93;;;20.90;24.50;;;;;;2228987;62;20368;-69
2024/01/25 00:11:04;0.00;0.00;0.62;0.00;0.00;0.62;4.90;2.33;;;20.90;24.50;;;;;;2228870;62;20432;-66
2024/01/25 00:13:50;0.00;0.00;0.62;0.00;0.00;0.62;5.10;3.17;;;20.90;24.50;;;;;;2228965;62;20372;-67
2024/01/25 00:16:35;0.00;0.00;0.62;0.00;0.00;0.62;5.23;2.77;;;20.90;24.50;;;;;;2228524;62;20392;-69
2024/01/25 00:19:19;0.00;0.00;0.62;0.00;0.00;0.62;5.07;2.97;;;20.90;24.50;;;;;;2228788;62;20562;-67
2024/01/25 00:22:04;0.00;0.00;0.62;0.00;0.00;0.62;5.20;2.67;;;20.90;24.50;;;;;;2228167;62;21012;-67
2024/01/25 00:24:48;0.00;0.00;0.62;0.00;0.00;0.62;3.70;2.57;;;20.90;24.50;;;;;;2228962;62;20391;-67
2024/01/25 00:27:33;0.00;0.00;0.62;0.00;0.00;0.62;5.77;3.13;;;20.90;24.50;;;;;;2229084;62;20425;-67
2024/01/25 00:30:19;0.00;0.00;0.62;0.00;0.00;0.62;4.60;2.47;;;20.90;24.50;;;;;;2228468;62;20384;-67
2024/01/25 00:33:04;0.00;0.00;0.62;0.00;0.00;0.62;5.80;2.60;;;20.90;24.50;;;;;;2228477;62;20372;-66
2024/01/25 00:35:49;0.00;0.00;0.62;0.00;0.00;0.62;8.37;3.40;;;20.90;24.50;;;;;;2229058;62;20379;-67
2024/01/25 00:38:35;0.00;0.00;0.62;0.00;0.00;0.62;5.10;2.90;;;20.90;24.50;;;;;;2228858;62;20489;-68
2024/01/25 00:41:20;0.00;0.00;0.62;0.00;0.00;0.62;6.70;2.90;;;20.90;24.50;;;;;;2228348;62;20408;-67
2024/01/25 00:44:06;0.00;0.00;0.62;0.00;0.00;0.62;5.03;2.67;;;20.90;24.50;;;;;;2228852;62;20367;-67
2024/01/25 00:46:53;0.00;0.00;0.62;0.00;0.00;0.62;5.07;2.40;;;20.90;24.50;;;;;;2228946;62;20922;-68
2024/01/25 00:49:39;0.00;0.00;0.62;0.00;0.00;0.62;4.53;2.63;;;20.90;24.50;;;;;;2228871;62;20942;-66
2024/01/25 00:52:24;0.00;0.00;0.62;0.00;0.00;0.62;3.80;2.17;;;20.90;24.50;;;;;;2228511;62;20392;-68
2024/01/25 00:55:11;0.00;0.00;0.62;0.00;0.00;0.62;6.80;3.90;;;20.90;24.50;;;;;;2228856;62;20376;-67
2024/01/25 00:57:57;0.00;0.00;0.62;0.00;0.00;0.62;6.50;3.00;;;20.90;24.50;;;;;;2228938;62;20372;-67
2024/01/25 01:00:42;0.00;0.00;0.62;0.00;0.00;0.62;5.63;2.70;;;20.90;24.50;;;;;;2228539;62;20448;-68
2024/01/25 01:03:29;0.00;0.00;0.62;0.00;0.00;0.62;4.73;2.00;;;20.90;24.50;;;;;;2228947;62;20376;-67
2024/01/25 01:06:14;0.00;0.00;0.62;0.00;0.00;0.62;4.83;2.27;;;20.90;24.50;;;;;;2228573;62;20380;-67
2024/01/25 01:08:59;0.00;0.00;0.62;0.00;0.00;0.62;4.00;2.20;;;20.90;24.50;;;;;;2228742;62;20368;-67
2024/01/25 01:11:44;0.00;0.00;0.62;0.00;0.00;0.62;4.90;2.13;;;20.90;24.50;;;;;;2228815;62;20460;-67
2024/01/25 01:14:28;0.00;0.00;0.62;0.00;0.00;0.62;4.40;2.40;;;20.90;24.50;;;;;;2228432;62;20890;-67
2024/01/25 01:17:13;0.00;0.00;0.62;0.00;0.00;0.62;4.67;2.17;;;20.90;24.50;;;;;;2228885;62;20387;-67
2024/01/25 01:19:59;0.00;0.00;0.62;0.00;0.00;0.62;3.67;2.00;;;20.90;24.50;;;;;;2228602;62;20396;-63
2024/01/25 01:22:43;0.00;0.00;0.62;0.00;0.00;0.62;4.77;2.17;;;20.90;24.50;;;;;;2262399;41;20507;-62
2024/01/25 01:25:28;0.00;0.00;0.62;0.00;0.00;0.62;4.30;2.47;;;20.90;24.50;;;;;;2235132;62;20428;-64
2024/01/25 01:28:13;0.00;0.00;0.62;0.00;0.00;0.62;5.70;2.37;;;20.90;24.50;;;;;;2232941;62;20905;-65
2024/01/25 01:30:58;0.00;0.00;0.62;0.00;0.00;0.62;5.20;2.30;;;20.90;24.50;;;;;;2229511;62;21143;-62
2024/01/25 01:33:44;0.00;0.00;0.62;0.00;0.00;0.62;3.60;2.03;;;20.90;24.50;;;;;;2229813;62;20467;-65
2024/01/25 01:36:30;0.00;0.00;0.62;0.00;0.00;0.62;4.73;2.50;;;20.90;24.50;;;;;;2232795;62;20416;-64
2024/01/25 01:39:15;0.00;0.00;0.62;0.00;0.00;0.62;5.10;2.40;;;20.90;24.50;;;;;;2232954;62;20379;-66
2024/01/25 01:41:59;0.00;0.00;0.62;0.00;0.00;0.62;3.43;1.60;;;20.90;24.50;;;;;;2232249;62;20382;-65
2024/01/25 01:44:44;0.00;0.00;0.62;0.00;0.00;0.62;4.67;2.30;;;20.90;24.50;;;;;;2232142;62;20370;-64
2024/01/25 01:47:28;0.00;0.00;0.62;0.00;0.00;0.62;5.90;3.10;;;20.90;24.50;;;;;;2234964;62;20402;-63
2024/01/25 01:50:13;0.00;0.00;0.62;0.00;0.00;0.62;4.23;2.40;;;20.90;24.50;;;;;;2233073;62;20371;-65
2024/01/25 01:52:59;0.00;0.00;0.62;0.00;0.00;0.62;4.43;1.97;;;20.90;24.40;;;;;;2233683;62;20408;-65
2024/01/25 01:55:44;0.00;0.00;0.62;0.00;0.00;0.62;3.87;2.50;;;20.90;24.50;;;;;;2233444;62;20834;-65
2024/01/25 01:58:31;0.00;0.00;0.62;0.00;0.00;0.62;3.80;2.50;;;20.90;24.50;;;;;;2230229;62;20367;-65
2024/01/25 02:01:16;0.00;0.00;0.62;0.00;0.00;0.62;3.77;1.77;;;20.90;24.50;;;;;;2235308;61;20485;-64
2024/01/25 02:04:01;0.00;0.00;0.62;0.00;0.00;0.62;6.70;1.93;;;20.90;24.50;;;;;;2233316;62;20553;-65
2024/01/25 02:06:46;0.00;0.00;0.62;0.00;0.00;0.62;3.33;1.93;;;20.90;24.50;;;;;;2233315;62;20371;-66
2024/01/25 02:09:32;0.00;0.00;0.62;0.00;0.00;0.62;4.00;2.03;;;20.90;24.50;;;;;;2233043;62;20423;-66
2024/01/25 02:12:17;0.00;0.00;0.62;0.00;0.00;0.62;2.80;1.80;;;20.90;25.00;;;;;;2233387;62;20391;-65
2024/01/25 02:15:02;0.00;0.00;0.62;0.00;0.00;0.62;4.20;1.93;;;20.90;24.40;;;;;;2233007;62;20368;-67
2024/01/25 02:17:47;0.00;0.00;0.62;0.00;0.00;0.62;4.33;2.10;;;20.90;24.40;;;;;;2232442;62;20409;-67
2024/01/25 02:20:32;0.00;0.00;0.62;0.00;0.00;0.62;3.83;2.10;;;20.90;24.40;;;;;;2232109;62;20386;-66
2024/01/25 02:23:18;0.00;0.00;0.62;0.00;0.00;0.62;5.20;2.67;;;20.90;24.40;;;;;;2232498;62;20376;-67
2024/01/25 02:26:03;0.00;0.00;0.62;0.00;0.00;0.62;3.67;2.27;;;20.90;24.50;;;;;;2232615;62;20387;-67
2024/01/25 02:28:48;0.00;0.00;0.62;0.00;0.00;0.62;2.77;1.57;;;20.90;24.40;;;;;;2232253;62;20790;-67
2024/01/25 02:31:32;0.00;0.00;0.62;0.00;0.00;0.62;4.13;2.20;;;20.90;24.50;;;;;;2231812;62;20391;-66
2024/01/25 02:34:17;0.00;0.00;0.62;0.00;0.00;0.62;4.13;2.30;;;20.90;24.40;;;;;;2228203;62;20414;-67
2024/01/25 02:37:02;0.00;0.00;0.62;0.00;0.00;0.62;3.60;1.90;;;20.90;24.50;;;;;;2232260;62;20898;-66
2024/01/25 02:39:48;0.00;0.00;0.62;0.00;0.00;0.62;4.13;1.90;;;20.90;24.40;;;;;;2232451;62;20419;-66
2024/01/25 02:42:33;0.00;0.00;0.62;0.00;0.00;0.62;6.30;2.93;;;20.90;24.40;;;;;;2232194;62;20395;-67
2024/01/25 02:45:17;0.00;0.00;0.62;0.00;0.00;0.62;2.67;1.67;;;20.90;24.40;;;;;;2232620;62;20910;-67
2024/01/25 02:48:03;0.00;0.00;0.62;0.00;0.00;0.62;4.83;2.33;;;20.90;24.40;;;;;;2232307;62;20459;-67
2024/01/25 02:50:48;0.00;0.00;0.62;0.00;0.00;0.62;4.30;1.80;;;20.90;24.40;;;;;;2232134;62;20439;-67
2024/01/25 02:53:32;0.00;0.00;0.62;0.00;0.00;0.62;2.87;1.93;;;20.90;24.40;;;;;;2232486;62;20423;-67
2024/01/25 02:56:18;0.00;0.00;0.62;0.00;0.00;0.62;2.50;1.87;;;20.90;24.40;;;;;;2232442;62;20367;-66
2024/01/25 02:59:02;0.00;0.00;0.62;0.00;0.00;0.62;3.07;1.47;;;20.90;24.40;;;;;;2232319;62;20371;-66
2024/01/25 03:01:48;0.00;0.00;0.62;0.00;0.00;0.62;3.37;1.60;;;20.90;24.40;;;;;;2232969;62;20435;-67
2024/01/25 03:04:33;0.00;0.00;0.62;0.00;0.00;0.62;3.37;1.80;;;20.90;24.40;;;;;;2232863;62;20857;-66
2024/01/25 03:07:18;0.00;0.00;0.62;0.00;0.00;0.62;4.47;2.13;;;20.90;24.50;;;;;;2233898;62;20899;-70
2024/01/25 03:10:03;0.00;0.00;0.62;0.00;0.00;0.62;3.60;1.67;;;20.90;24.40;;;;;;2235147;62;20387;-66
2024/01/25 03:12:48;0.00;0.00;0.62;0.00;0.00;0.62;6.07;1.90;;;20.90;24.40;;;;;;2235395;62;20375;-67
2024/01/25 03:15:33;0.00;0.00;0.62;0.00;0.00;0.62;3.87;1.97;;;20.90;24.40;;;;;;2234679;62;20465;-66
2024/01/25 03:18:18;0.00;0.00;0.62;0.00;0.00;0.62;4.77;1.70;;;20.90;24.40;;;;;;2235063;62;20366;-66
2024/01/25 03:21:02;0.00;0.00;0.62;0.00;0.00;0.62;4.20;1.93;;;20.90;24.40;;;;;;2234053;62;20403;-67
2024/01/25 03:23:47;0.00;0.00;0.62;0.00;0.00;0.62;3.30;1.80;;;20.90;24.40;;;;;;2235727;62;20398;-64
2024/01/25 03:26:31;0.00;0.00;0.62;0.00;0.00;0.62;3.97;2.13;;;20.90;24.40;;;;;;2235439;62;20383;-65
2024/01/25 03:29:17;0.00;0.00;0.62;0.00;0.00;0.62;4.80;2.03;;;20.90;24.40;;;;;;2238958;62;20403;-64
2024/01/25 03:32:02;0.00;0.00;0.62;0.00;0.00;0.62;3.70;1.67;;;20.90;24.40;;;;;;2234114;62;20390;-64
2024/01/25 03:34:46;0.00;0.00;0.62;0.00;0.00;0.62;3.93;1.97;;;20.90;24.40;;;;;;2234114;62;20379;-66
2024/01/25 03:37:31;0.00;0.00;0.62;0.00;0.00;0.62;3.90;1.97;;;20.90;24.40;;;;;;2233273;62;20378;-66
2024/01/25 03:40:16;0.00;0.00;0.62;0.00;0.00;0.62;3.60;1.87;;;20.90;24.40;;;;;;2233350;62;20438;-65
2024/01/25 03:43:01;0.00;0.00;0.62;0.00;0.00;0.62;2.93;1.70;;;20.90;24.40;;;;;;2233302;62;20391;-65
2024/01/25 03:45:46;0.00;0.00;0.62;0.00;0.00;0.62;4.10;2.00;;;20.90;24.40;;;;;;2233621;62;20426;-65
2024/01/25 03:48:31;0.00;0.00;0.62;0.00;0.00;0.62;3.80;2.03;;;20.90;24.40;;;;;;2233243;62;20376;-65
2024/01/25 03:51:16;0.00;0.00;0.62;0.00;0.00;0.62;4.07;1.97;;;20.90;24.40;;;;;;2233453;62;20387;-62
2024/01/25 03:54:01;0.00;0.00;0.62;0.00;0.00;0.62;3.50;1.93;;;20.90;24.40;;;;;;2233545;62;20375;-65
2024/01/25 03:56:45;0.00;0.00;0.62;0.00;0.00;0.62;3.00;1.50;;;20.90;24.40;;;;;;2233143;62;20374;-64
2024/01/25 03:59:31;0.00;0.00;0.62;0.00;0.00;0.62;6.77;1.90;;;20.90;24.40;;;;;;2233674;62;20384;-69
2024/01/25 04:02:17;0.00;0.00;0.62;0.00;0.00;0.62;3.27;1.90;;;20.90;24.40;;;;;;2232877;62;20390;-65
2024/01/25 04:05:01;0.00;0.00;0.62;0.00;0.00;0.62;2.80;1.60;;;20.90;24.40;;;;;;2232605;62;20395;-65
2024/01/25 04:07:46;0.00;0.00;0.62;0.00;0.00;0.62;3.37;2.07;;;20.90;24.40;;;;;;2233061;62;20407;-65
2024/01/25 04:10:30;0.00;0.00;0.62;0.00;0.00;0.62;3.70;1.80;;;20.90;24.40;;;;;;2232943;62;20922;-63
2024/01/25 04:13:15;0.00;0.00;0.62;0.00;0.00;0.62;3.00;1.60;;;20.90;24.40;;;;;;2233255;62;20355;-67
2024/01/25 04:15:59;0.00;0.00;0.62;0.00;0.00;0.62;3.90;1.60;;;20.90;24.40;;;;;;2232730;62;20374;-67
2024/01/25 04:18:45;0.00;0.00;0.62;0.00;0.00;0.62;4.00;1.80;;;20.90;24.40;;;;;;2232714;62;20371;-69
2024/01/25 04:21:30;0.00;0.00;0.62;0.00;0.00;0.62;3.03;1.87;;;20.90;24.40;;;;;;2232498;62;20547;-66
2024/01/25 04:24:14;0.00;0.00;0.62;0.00;0.00;0.62;4.77;1.63;;;20.90;24.40;;;;;;2232891;62;20856;-67
2024/01/25 04:26:59;0.00;0.00;0.62;0.00;0.00;0.62;2.60;1.20;;;20.90;24.40;;;;;;2232757;62;20426;-66
2024/01/25 04:29:44;0.00;0.00;0.62;0.00;0.00;0.62;3.90;1.80;;;20.90;24.40;;;;;;2232762;62;20921;-67
2024/01/25 04:32:28;0.00;0.00;0.62;0.00;0.00;0.62;3.07;1.60;;;20.90;24.40;;;;;;2232646;62;20391;-66
2024/01/25 04:35:14;0.00;0.00;0.62;0.00;0.00;0.62;3.30;1.80;;;20.90;24.40;;;;;;2232600;62;20371;-67
2024/01/25 04:37:58;0.00;0.00;0.62;0.00;0.00;0.62;4.40;1.60;;;20.90;24.40;;;;;;2232881;62;20520;-66
2024/01/25 04:40:43;0.00;0.00;0.62;0.00;0.00;0.62;3.43;1.70;;;20.90;24.40;;;;;;2232348;62;20483;-73
2024/01/25 04:43:27;0.00;0.00;0.62;0.00;0.00;0.62;3.10;1.40;;;20.90;24.40;;;;;;2232807;62;20460;-67
2024/01/25 04:46:12;0.00;0.00;0.62;0.00;0.00;0.62;3.53;2.10;;;20.90;24.40;;;;;;2232694;62;20380;-67
2024/01/25 04:48:56;0.00;0.00;0.62;0.00;0.00;0.62;3.93;1.43;;;20.90;24.40;;;;;;2232575;62;20466;-68
2024/01/25 04:51:42;0.00;0.00;0.62;0.00;0.00;0.62;3.50;1.97;;;20.90;24.40;;;;;;2232705;62;20387;-67
2024/01/25 04:54:27;0.00;0.00;0.62;0.00;0.00;0.62;3.70;1.77;;;20.90;24.40;;;;;;2232754;62;20516;-67
2024/01/25 04:57:12;0.00;0.00;0.62;0.00;0.00;0.62;4.27;1.30;;;20.90;24.40;;;;;;2232606;62;20415;-67
2024/01/25 04:59:56;0.00;0.00;0.62;0.00;0.00;0.62;4.70;1.50;;;20.90;24.40;;;;;;2232817;62;20364;-67
2024/01/25 05:02:41;0.00;0.00;0.62;0.00;0.00;0.62;3.70;1.70;;;20.90;24.40;;;;;;2232875;62;20391;-67
2024/01/25 05:05:25;0.00;0.00;0.62;0.00;0.00;0.62;3.70;1.70;;;20.90;24.40;;;;;;2232603;62;20436;-67
2024/01/25 05:08:11;0.00;0.00;0.62;0.00;0.00;0.62;2.80;1.37;;;20.90;24.40;;;;;;2232940;62;20444;-67
2024/01/25 05:10:56;0.00;0.00;0.62;0.00;0.00;0.62;2.63;1.40;;;20.90;24.40;;;;;;2232149;62;20438;-68
2024/01/25 05:13:41;0.00;0.00;0.62;0.00;0.00;0.62;2.87;1.20;;;20.90;24.40;;;;;;2232736;62;20355;-67
2024/01/25 05:16:25;0.00;0.00;0.62;0.00;0.00;0.62;4.10;1.60;;;20.90;24.40;;;;;;2232658;62;20371;-67
2024/01/25 05:19:10;0.00;0.00;0.62;0.00;0.00;0.62;2.27;1.40;;;20.90;24.40;;;;;;2232461;62;20432;-67
2024/01/25 05:21:55;0.00;0.00;0.62;0.00;0.00;0.62;3.50;1.70;;;20.90;24.40;;;;;;2232082;62;20398;-67
2024/01/25 05:24:42;0.00;0.00;0.62;0.00;0.00;0.62;2.50;1.40;;;20.90;24.40;;;;;;2234782;62;20419;-67
2024/01/25 05:27:26;0.00;0.00;0.62;0.00;0.00;0.62;2.43;1.37;;;20.90;24.40;;;;;;2232093;62;20909;-67
2024/01/25 05:30:12;0.00;0.00;0.62;0.00;0.00;0.62;2.43;1.20;;;20.90;24.40;;;;;;2232384;62;20387;-68
2024/01/25 05:32:57;0.00;0.00;0.62;0.00;0.00;0.62;3.67;1.80;;;20.90;24.40;;;;;;2232525;62;20383;-67
2024/01/25 05:35:41;0.00;0.00;0.62;0.00;0.00;0.62;2.23;1.30;;;20.90;24.40;;;;;;2232493;62;20383;-67
2024/01/25 05:38:26;0.00;0.00;0.62;0.00;0.00;0.62;3.50;1.50;;;20.90;24.40;;;;;;2232414;62;20373;-67
2024/01/25 05:41:12;0.00;0.00;0.62;0.00;0.00;0.62;3.30;1.53;;;20.90;24.40;;;;;;2232192;62;20406;-66
2024/01/25 05:43:56;0.00;0.00;0.62;0.00;0.00;0.62;3.63;2.00;;;20.90;24.40;;;;;;2232539;62;20712;-67
2024/01/25 05:46:41;0.00;0.00;0.62;0.00;0.00;0.62;2.57;1.83;;;20.90;24.40;;;;;;2232508;62;20917;-67
2024/01/25 05:49:26;0.00;0.00;0.62;0.00;0.00;0.62;3.40;1.57;;;20.90;24.40;;;;;;2232553;62;20926;-67
2024/01/25 05:52:10;0.00;0.00;0.62;0.00;0.00;0.62;2.80;1.10;;;20.90;24.40;;;;;;2232498;62;20422;-67
2024/01/25 05:54:55;0.00;0.00;0.62;0.00;0.00;0.62;2.20;1.00;;;20.90;24.40;;;;;;2232288;62;20500;-67
2024/01/25 05:57:44;0.00;0.00;0.62;0.00;0.00;0.62;4.10;1.50;;;20.90;24.40;;;;;;2232850;62;20379;-67
2024/01/25 06:00:28;0.00;0.00;0.62;0.00;0.00;0.62;3.50;1.50;;;20.90;24.50;;;;;;2232276;62;20392;-69
2024/01/25 06:03:13;0.00;0.00;0.62;0.00;0.00;0.62;3.50;1.40;;;20.90;24.40;;;;;;2232397;62;20364;-67
2024/01/25 06:05:58;0.00;0.00;0.62;0.00;0.00;0.62;2.87;1.40;;;20.90;24.40;;;;;;2232596;62;20371;-67
2024/01/25 06:08:42;0.00;0.00;0.62;0.00;0.00;0.62;3.17;1.67;;;20.90;24.40;;;;;;2232653;62;20494;-67
2024/01/25 06:11:27;0.00;0.00;0.62;0.00;0.00;0.62;2.83;1.50;;;20.90;24.40;;;;;;2232212;62;20391;-67
2024/01/25 06:14:13;0.00;0.00;0.62;0.00;0.00;0.62;3.60;1.40;;;20.90;24.40;;;;;;2232574;62;20373;-67
2024/01/25 06:16:57;0.00;0.00;0.62;0.00;0.00;0.62;2.70;1.60;;;20.90;24.40;;;;;;2232363;62;20379;-71
2024/01/25 06:19:42;0.00;0.00;0.62;0.00;0.00;0.62;3.53;1.60;;;20.90;24.40;;;;;;2232505;62;20416;-67
2024/01/25 06:22:27;0.00;0.00;0.62;0.00;0.00;0.62;2.90;1.53;;;20.80;24.30;;;;;;2232525;62;20391;-71
2024/01/25 06:25:11;0.00;0.00;0.62;0.00;0.00;0.62;2.80;1.57;;;20.80;24.40;;;;;;2232436;62;20977;-67
2024/01/25 06:27:57;0.00;0.00;0.62;0.00;0.00;0.62;4.00;2.23;;;20.90;24.40;;;;;;2234681;62;20766;-67
2024/01/25 06:30:42;0.00;0.00;0.62;0.00;0.00;0.62;4.20;1.90;;;20.90;24.40;;;;;;2231624;62;20399;-67
2024/01/25 06:33:27;0.00;0.00;0.62;0.00;0.00;0.62;3.77;1.90;;;20.90;24.40;;;;;;2232574;62;20535;-67
2024/01/25 06:36:13;0.00;0.00;0.62;0.00;0.00;0.62;5.40;1.97;;;20.90;24.40;;;;;;2233752;62;20395;-66
2024/01/25 06:38:58;0.00;0.00;0.62;0.00;0.00;0.62;3.40;2.07;;;20.90;24.40;;;;;;2233634;62;20515;-66
2024/01/25 06:41:43;0.00;0.00;0.62;0.00;0.00;0.62;4.13;2.17;;;20.90;24.40;;;;;;2233480;62;20805;-66
2024/01/25 06:44:28;0.00;0.00;0.62;0.00;0.00;0.62;4.20;1.97;;;20.90;24.40;;;;;;2233752;62;20794;-66
2024/01/25 06:47:14;0.00;0.00;0.62;0.00;0.00;0.62;8.20;2.93;;;20.90;24.40;;;;;;2233597;62;20363;-66
2024/01/25 06:49:58;0.00;0.00;0.62;0.00;0.00;0.62;5.33;2.43;;;20.90;24.40;;;;;;2233595;62;20383;-67
2024/01/25 06:52:43;0.00;0.00;0.62;0.00;0.00;0.62;4.13;2.33;;;20.90;24.40;;;;;;2233257;62;20438;-67
2024/01/25 06:55:28;0.00;0.00;0.62;0.00;0.00;0.62;3.90;2.20;;;20.90;24.40;;;;;;2233620;62;20367;-66
2024/01/25 06:58:13;0.00;0.00;0.62;0.00;0.00;0.62;5.00;2.30;;;20.90;24.40;;;;;;2234232;62;20419;-65
2024/01/25 07:00:57;0.00;0.00;0.62;0.00;0.00;0.62;3.80;2.37;;;20.90;24.40;;;;;;2233240;62;20402;-65
2024/01/25 07:03:44;0.00;0.00;0.62;0.00;0.00;0.62;3.20;2.23;;;20.90;24.40;;;;;;2233854;62;20375;-66
2024/01/25 07:06:28;0.00;0.00;0.62;0.00;0.00;0.62;3.80;2.00;;;20.90;24.40;;;;;;2233842;62;20371;-66
2024/01/25 07:09:13;0.00;0.00;0.62;0.00;0.00;0.62;6.03;3.17;;;20.90;24.40;;;;;;2233964;62;20843;-65
2024/01/25 07:11:57;0.00;0.00;0.62;0.00;0.00;0.62;4.97;2.73;;;20.90;24.40;;;;;;2233758;62;20526;-66
2024/01/25 07:14:42;0.00;0.00;0.62;0.00;0.00;0.62;5.13;2.90;;;20.90;24.40;;;;;;2233932;62;20408;-64
2024/01/25 07:17:27;0.00;0.00;0.62;0.00;0.00;0.62;5.03;3.40;;;20.90;24.40;;;;;;2233972;62;20938;-63
2024/01/25 07:20:13;0.00;0.00;0.62;0.00;0.00;0.62;5.63;3.60;;;20.90;24.50;;;;;;2234006;62;20383;-65
2024/01/25 07:22:57;0.00;0.00;0.62;0.00;0.00;0.62;4.90;3.20;;;20.90;24.50;;;;;;2233367;62;20414;-66
2024/01/25 07:25:42;0.00;0.00;0.62;0.00;0.00;0.62;6.60;4.10;;;20.80;24.40;;;;;;2233885;62;20374;-65
2024/01/25 07:28:26;0.00;0.00;0.62;0.00;0.00;0.62;6.70;4.60;;;20.80;24.40;;;;;;2234120;62;20359;-65
2024/01/25 07:31:11;0.00;0.00;0.62;0.00;0.00;0.62;8.83;4.87;;;20.90;24.50;;;;;;2233672;62;20455;-65
2024/01/25 07:33:56;0.00;0.00;0.62;0.00;0.00;0.62;7.30;4.40;;;20.90;24.40;;;;;;2233725;62;20411;-64
2024/01/25 07:36:41;0.00;0.00;0.62;0.00;0.00;0.62;8.77;5.30;;;20.90;24.40;;;;;;2233991;62;20524;-62
2024/01/25 07:39:26;0.00;0.00;0.62;0.00;0.00;0.62;7.17;5.17;;;20.90;24.40;;;;;;2233843;62;20371;-65
2024/01/25 07:45:16;0.00;0.00;0.62;0.00;0.00;0.62;7.60;5.27;;;20.90;24.40;;;;;;2234898;62;20507;-66
2024/01/25 07:48:00;0.00;0.00;0.62;0.00;0.00;0.62;8.33;5.37;;;20.90;24.40;;;;;;2233337;62;20379;-71
2024/01/25 07:50:45;0.00;0.00;0.62;0.00;0.00;0.62;6.80;5.33;;;20.80;24.40;;;;;;2227327;62;20392;-65
2024/01/25 07:53:31;0.00;0.00;0.62;0.00;0.00;0.62;8.60;5.60;;;20.90;24.50;;;;;;2233132;62;20782;-64
2024/01/25 07:56:16;0.00;0.00;0.62;0.00;0.00;0.62;8.83;5.37;;;20.80;24.40;;;;;;2233447;62;20374;-67
2024/01/25 07:59:00;0.00;0.00;0.62;0.00;0.00;0.62;12.17;8.03;;;20.90;24.50;;;;;;2232990;62;20459;-68
2024/01/25 08:01:45;0.00;0.00;0.62;0.00;0.00;0.62;12.20;7.63;;;20.80;25.00;;;;;;2232385;62;20941;-68
2024/01/25 08:04:29;0.00;0.00;0.62;0.00;0.00;0.62;8.40;6.20;;;20.90;24.50;;;;;;2232800;62;20375;-67
2024/01/25 08:07:14;0.00;0.00;0.62;0.00;0.00;0.62;11.67;5.13;;;20.80;24.40;;;;;;2232815;62;20453;-67
2024/01/25 08:10:00;0.00;0.00;0.62;0.00;0.00;0.62;8.13;5.73;;;20.90;24.50;;;;;;2233076;62;20387;-67
2024/01/25 08:12:47;0.00;0.00;0.62;0.00;0.00;0.62;9.20;5.03;;;20.90;24.50;;;;;;2229648;62;20842;-66
2024/01/25 08:15:31;0.00;0.00;0.62;0.00;0.00;0.62;9.03;5.90;;;20.90;24.50;;;;;;2229511;62;20704;-66
2024/01/25 08:18:16;0.00;0.00;0.62;0.00;0.00;0.62;11.17;6.60;;;20.90;24.50;;;;;;2232679;62;20971;-66
2024/01/25 08:21:00;0.00;0.00;0.62;0.00;0.00;0.62;7.90;5.00;;;20.90;24.50;;;;;;2232505;62;20414;-69
2024/01/25 08:23:45;0.00;0.00;0.62;0.00;0.00;0.62;10.30;6.40;;;20.90;24.50;;;;;;2232717;62;20914;-68
2024/01/25 08:26:30;0.00;0.00;0.62;0.00;0.00;0.62;10.07;6.30;;;20.80;24.40;;;;;;2232875;62;20939;-66
2024/01/25 08:29:15;0.00;0.00;0.62;0.00;0.00;0.62;10.43;5.63;;;20.90;25.00;;;;;;2229496;62;20781;-66
2024/01/25 08:32:00;0.00;0.00;0.62;0.00;0.00;0.62;8.13;5.67;;;20.90;24.50;;;;;;2232475;62;20961;-66
2024/01/25 08:34:44;0.00;0.00;0.62;0.00;0.00;0.62;9.03;5.37;;;20.90;24.50;;;;;;2226935;62;20371;-67
2024/01/25 08:37:29;0.00;0.00;0.62;0.00;0.00;0.62;8.07;5.27;;;20.90;24.50;;;;;;2229683;62;20371;-66
2024/01/25 08:40:14;0.00;0.00;0.62;0.00;0.00;0.62;8.57;5.47;;;20.90;24.50;;;;;;2232582;62;20374;-67
2024/01/25 08:43:00;0.00;0.00;0.62;0.00;0.00;0.62;8.80;5.30;;;20.90;24.50;;;;;;2232896;62;20435;-67
2024/01/25 08:45:44;0.00;0.00;0.62;0.00;0.00;0.62;10.30;5.63;;;20.90;24.50;;;;;;2229405;62;20379;-70
2024/01/25 08:48:29;0.00;0.00;0.62;0.00;0.00;0.62;7.27;5.10;;;20.90;24.50;;;;;;2232798;62;20784;-67
2024/01/25 08:51:13;0.00;0.00;0.62;0.00;0.00;0.62;8.90;5.40;;;20.90;24.50;;;;;;2232444;62;20912;-67
2024/01/25 08:53:58;0.00;0.00;0.62;0.00;0.00;0.62;10.53;5.83;;;20.80;24.40;;;;;;2232758;62;20464;-66
2024/01/25 08:56:42;0.00;0.00;0.62;0.00;0.00;0.62;13.33;5.43;;;20.80;24.40;;;;;;2232339;62;20371;-67
2024/01/25 08:59:30;0.00;0.00;0.62;0.00;0.00;0.62;7.40;5.20;;;20.90;24.50;;;;;;2232965;62;20408;-66
2024/01/25 09:02:15;0.00;0.00;0.62;0.00;0.00;0.62;9.90;5.17;;;20.90;25.10;;;;;;2232508;62;20456;-68
2024/01/25 09:05:00;0.00;0.00;0.62;0.00;0.00;0.62;11.20;5.27;;;20.90;24.50;;;;;;2232690;62;20436;-66
2024/01/25 09:07:45;0.00;0.00;0.62;0.00;0.00;0.62;10.37;5.20;;;20.90;24.50;;;;;;2232823;62;20387;-67
2024/01/25 09:10:29;0.00;0.00;0.62;0.00;0.00;0.62;7.60;5.23;;;20.90;24.50;;;;;;2232943;62;20772;-67
2024/01/25 09:13:14;0.00;0.00;0.62;0.00;0.00;0.62;9.77;6.03;;;20.90;24.50;;;;;;2232623;62;20375;-68
2024/01/25 09:16:00;0.00;0.00;0.62;0.00;0.00;0.62;11.50;5.07;;;20.90;24.50;;;;;;2232688;62;20463;-66
2024/01/25 09:18:44;0.00;0.00;0.62;0.00;0.00;0.62;8.83;5.30;;;20.90;24.50;;;;;;2229627;62;20456;-67
2024/01/25 09:21:29;0.00;0.00;0.62;0.00;0.00;0.62;8.53;5.20;;;20.90;24.50;;;;;;2232611;62;20418;-67
2024/01/25 09:24:13;0.00;0.00;0.62;0.00;0.00;0.62;10.20;5.40;;;20.90;24.50;;;;;;2232886;62;20371;-67
2024/01/25 09:26:59;0.00;0.00;0.62;0.00;0.00;0.62;6.77;4.50;;;20.90;24.50;;;;;;2230485;62;20373;-68
2024/01/25 09:29:44;0.00;0.00;0.62;0.00;0.00;0.62;9.30;5.10;;;20.90;24.50;;;;;;2236578;62;20370;-69
2024/01/25 09:32:30;0.00;0.00;0.62;0.00;0.00;0.62;7.67;5.30;;;20.90;24.50;;;;;;2236564;62;20952;-67
2024/01/25 09:35:15;0.00;0.00;0.62;0.00;0.00;0.62;9.50;5.67;;;20.90;24.50;;;;;;2236860;62;20371;-66
2024/01/25 09:38:00;0.00;0.00;0.62;0.00;0.00;0.62;10.33;5.33;;;20.90;24.50;;;;;;2236470;62;20488;-67
2024/01/25 09:40:45;0.00;0.00;0.62;0.00;0.00;0.62;6.80;4.60;;;20.90;24.50;;;;;;2236430;61;20494;-66
2024/01/25 09:43:29;0.00;0.00;0.62;0.00;0.00;0.62;9.20;5.30;;;20.90;24.50;;;;;;2236481;62;20453;-68
2024/01/25 09:46:15;0.00;0.00;0.62;0.00;0.00;0.62;8.70;5.37;;;20.90;24.50;;;;;;2236344;62;20366;-68
2024/01/25 09:49:02;0.00;0.00;0.62;0.00;0.00;0.62;7.63;5.10;;;20.90;24.50;;;;;;2233752;62;20475;-67
2024/01/25 09:51:50;0.00;0.00;0.62;0.00;0.00;0.62;9.07;5.77;;;20.90;24.50;;;;;;2236425;61;20418;-69
2024/01/25 09:54:36;0.00;0.00;0.62;0.00;0.00;0.62;8.47;5.37;;;20.90;24.50;;;;;;2236648;62;20362;-67
2024/01/25 09:57:24;0.00;0.00;0.62;0.00;0.00;0.62;8.33;5.50;;;20.90;24.50;;;;;;2236446;62;20378;-67
2024/01/25 10:00:11;0.00;0.00;0.62;0.00;0.00;0.62;9.00;4.70;;;20.90;25.10;;;;;;2236270;62;20439;-66
2024/01/25 10:02:56;0.00;0.00;0.62;0.00;0.00;0.62;7.03;4.33;;;20.90;24.50;;;;;;2236428;62;20454;-67
2024/01/25 10:05:43;0.00;0.00;0.62;0.00;0.00;0.62;8.83;4.50;;;20.90;24.50;;;;;;2236596;62;20390;-68
2024/01/25 10:08:27;0.00;0.00;0.62;0.00;0.00;0.62;6.27;4.73;;;20.90;24.50;;;;;;2232954;62;20530;-68
2024/01/25 10:11:12;0.00;0.00;0.62;0.00;0.00;0.62;6.63;4.67;;;20.90;24.50;;;;;;2236465;61;20381;-67
2024/01/25 10:13:56;0.00;0.00;0.62;0.00;0.00;0.62;9.60;5.37;;;20.90;24.50;;;;;;2236492;62;20386;-67
2024/01/25 10:16:42;0.00;0.00;0.62;0.00;0.00;0.62;8.00;5.17;;;20.90;24.50;;;;;;2233754;62;20365;-67
2024/01/25 10:19:27;0.00;0.00;0.62;0.00;0.00;0.62;8.37;5.40;;;20.90;24.50;;;;;;2236722;62;20426;-67
2024/01/25 10:22:13;0.00;0.00;0.62;0.00;0.00;0.62;9.03;4.70;;;20.90;25.10;;;;;;2233114;62;20959;-67
2024/01/25 10:24:57;0.00;0.00;0.62;0.00;0.00;0.62;10.10;5.00;;;20.90;24.50;;;;;;2236496;62;20510;-67
2024/01/25 10:27:42;0.00;0.00;0.62;0.00;0.00;0.62;7.77;4.33;;;21.00;24.70;;;;;;2236489;62;20369;-68
2024/01/25 10:30:30;0.00;0.00;0.62;0.00;0.00;0.62;6.80;4.60;;;21.00;24.70;;;;;;2236201;61;20454;-69
2024/01/25 10:33:16;0.00;0.00;0.62;0.00;0.00;0.62;10.00;5.03;;;21.00;24.70;;;;;;2236732;62;20362;-68
2024/01/25 10:36:02;0.00;0.00;0.62;0.00;0.00;0.62;7.80;4.40;;;21.00;24.70;;;;;;2236172;62;20438;-67
2024/01/25 10:38:50;0.00;0.00;0.62;0.00;0.00;0.62;8.47;4.83;;;21.00;24.70;;;;;;2236506;62;20887;-66
2024/01/25 10:41:35;0.00;0.00;0.62;0.00;0.00;0.62;11.00;5.00;;;21.00;24.70;;;;;;2236361;61;20406;-67
2024/01/25 10:44:21;0.00;0.00;0.62;0.00;0.00;0.62;8.90;4.90;;;21.00;24.70;;;;;;2236369;62;20516;-68
2024/01/25 10:47:07;0.00;0.00;0.62;0.00;0.00;0.62;6.00;3.90;;;21.00;24.70;;;;;;2233139;62;20378;-68
2024/01/25 10:49:52;0.00;0.00;0.62;0.00;0.00;0.62;16.63;4.80;;;21.00;24.70;;;;;;2236266;62;20422;-68
2024/01/25 10:52:39;0.00;0.00;0.62;0.00;0.00;0.62;11.10;4.60;;;21.00;24.70;;;;;;2236269;62;20407;-68